Shule, China
Current Conditions -  °F | °C
As of 11:00 PM on Saturday 25 Oct 2014 (Local Time) from ZWSH Reporting Station
Scattered Clouds Scattered Clouds  
Wind Chill: 59°   Ceiling: Unl
Heat Index: 59°   Visibility: 6mi
Dew Point: 28°   Wind: 4mph
Humidity: 31%   Direction: 320°NW
Pressure: 30.06"   Gusts: NA
Location:  39.42°N, 76.1°E
Report Text: ZWSH 251500Z 32002MPS 9999 SCT040 15/M02 Q1018 NOSIG
Loading
Personal Weather Stations






























Interactive Weather Map
Tropical Storm Tracking
New forecast layout! Learn more

10-Day Weather Forecast

Advertisements
Track Severe Weather on mobile